Time;durP1;ratioP1;P1;durP2;ratioP2;P2;SDS_P1;SDS_P2;PMS_P1;PMS_P2;Temp;Humidity;BMP_temperature;BMP_pressure;BME280_temperature;BME280_humidity;BME280_pressure;Samples;Min_cycle;Max_cycle;Signal;HPM_P1;HPM_P2
2023/02/07 00:00:55;;;;;;;10.1;7.5;;;;;;;;;;;;;
2023/02/07 00:03:20;;;;;;;8.1;7.1;;;;;;;;;;;;;
2023/02/07 00:05:47;;;;;;;10.5;8.1;;;;;;;;;;;;;
2023/02/07 00:08:13;;;;;;;9.3;7.1;;;;;;;;;;;;;
2023/02/07 00:10:37;;;;;;;11.2;7.6;;;;;;;;;;;;;
2023/02/07 00:13:08;;;;;;;11.1;8;;;;;;;;;;;;;
2023/02/07 00:15:33;;;;;;;11.6;8;;;;;;;;;;;;;
2023/02/07 00:18:02;;;;;;;11.4;8.2;;;;;;;;;;;;;
2023/02/07 00:20:31;;;;;;;11.8;8.2;;;;;;;;;;;;;
2023/02/07 00:22:57;;;;;;;11.1;7.9;;;;;;;;;;;;;
2023/02/07 00:25:21;;;;;;;11.2;8;;;;;;;;;;;;;
2023/02/07 00:27:50;;;;;;;11.4;8.3;;;;;;;;;;;;;
2023/02/07 00:30:20;;;;;;;11.5;8.4;;;;;;;;;;;;;
2023/02/07 00:32:49;;;;;;;10.7;8.2;;;;;;;;;;;;;
2023/02/07 00:35:14;;;;;;;12;8.5;;;;;;;;;;;;;
2023/02/07 00:37:40;;;;;;;13.5;8.7;;;;;;;;;;;;;
2023/02/07 00:40:05;;;;;;;11.4;8.1;;;;;;;;;;;;;
2023/02/07 00:42:34;;;;;;;11.8;8.5;;;;;;;;;;;;;
2023/02/07 00:44:59;;;;;;;11.6;8.5;;;;;;;;;;;;;
2023/02/07 00:47:25;;;;;;;11.7;8.4;;;;;;;;;;;;;
2023/02/07 00:49:50;;;;;;;9.3;7.9;;;;;;;;;;;;;
2023/02/07 00:52:15;;;;;;;9.8;7.8;;;;;;;;;;;;;
2023/02/07 00:54:40;;;;;;;12.2;8.3;;;;;;;;;;;;;
2023/02/07 00:57:07;;;;;;;10.8;8;;;;;;;;;;;;;
2023/02/07 00:59:32;;;;;;;11.4;8.3;;;;;;;;;;;;;
2023/02/07 01:01:57;;;;;;;11.3;7.9;;;;;;;;;;;;;
2023/02/07 01:04:22;;;;;;;11.3;8.5;;;;;;;;;;;;;
2023/02/07 01:06:49;;;;;;;10.6;8;;;;;;;;;;;;;
2023/02/07 01:09:14;;;;;;;12.4;8.4;;;;;;;;;;;;;
2023/02/07 01:11:40;;;;;;;10.5;8.2;;;;;;;;;;;;;
2023/02/07 01:14:05;;;;;;;10.5;7.2;;;;;;;;;;;;;
2023/02/07 01:16:31;;;;;;;8.2;6.8;;;;;;;;;;;;;
2023/02/07 01:18:56;;;;;;;8.7;6.8;;;;;;;;;;;;;
2023/02/07 01:21:24;;;;;;;8.5;6.5;;;;;;;;;;;;;
2023/02/07 01:23:49;;;;;;;7.5;6.3;;;;;;;;;;;;;
2023/02/07 01:26:15;;;;;;;6.9;5.8;;;;;;;;;;;;;
2023/02/07 01:28:40;;;;;;;8.1;6.2;;;;;;;;;;;;;
2023/02/07 01:31:05;;;;;;;7.8;6;;;;;;;;;;;;;
2023/02/07 01:33:31;;;;;;;6.7;5.9;;;;;;;;;;;;;
2023/02/07 01:35:56;;;;;;;8.6;6.4;;;;;;;;;;;;;
2023/02/07 01:38:21;;;;;;;9.3;7.1;;;;;;;;;;;;;
2023/02/07 01:40:46;;;;;;;8.5;6.3;;;;;;;;;;;;;
2023/02/07 01:43:13;;;;;;;8.2;6.8;;;;;;;;;;;;;
2023/02/07 01:45:39;;;;;;;10.2;7.5;;;;;;;;;;;;;
2023/02/07 01:48:04;;;;;;;9.9;6.9;;;;;;;;;;;;;
2023/02/07 01:50:29;;;;;;;14.1;8.2;;;;;;;;;;;;;
2023/02/07 01:52:55;;;;;;;12.2;8.3;;;;;;;;;;;;;
2023/02/07 01:55:20;;;;;;;10.9;8.1;;;;;;;;;;;;;
2023/02/07 01:57:48;;;;;;;10.4;7.7;;;;;;;;;;;;;
2023/02/07 02:00:13;;;;;;;10.2;7.9;;;;;;;;;;;;;
2023/02/07 02:02:39;;;;;;;11;7.7;;;;;;;;;;;;;
2023/02/07 02:05:04;;;;;;;10.8;8.2;;;;;;;;;;;;;
2023/02/07 02:07:31;;;;;;;10.8;8.1;;;;;;;;;;;;;
2023/02/07 02:09:55;;;;;;;11.4;8.1;;;;;;;;;;;;;
2023/02/07 02:12:22;;;;;;;12.9;8.7;;;;;;;;;;;;;
2023/02/07 02:14:47;;;;;;;12.7;8.4;;;;;;;;;;;;;
2023/02/07 02:17:13;;;;;;;12.4;8.2;;;;;;;;;;;;;
2023/02/07 02:19:38;;;;;;;12;8.4;;;;;;;;;;;;;
2023/02/07 02:22:03;;;;;;;10.1;8.1;;;;;;;;;;;;;
2023/02/07 02:24:29;;;;;;;11.9;8;;;;;;;;;;;;;
2023/02/07 02:26:54;;;;;;;10;7.9;;;;;;;;;;;;;
2023/02/07 02:29:19;;;;;;;9.6;7.4;;;;;;;;;;;;;
2023/02/07 02:31:44;;;;;;;10.5;7.3;;;;;;;;;;;;;
2023/02/07 02:34:12;;;;;;;9.5;7.5;;;;;;;;;;;;;
2023/02/07 02:36:37;;;;;;;9.7;7.3;;;;;;;;;;;;;
2023/02/07 02:39:02;;;;;;;10.6;7.7;;;;;;;;;;;;;
2023/02/07 02:41:27;;;;;;;15;10.5;;;;;;;;;;;;;
2023/02/07 02:43:52;;;;;;;9.6;6.9;;;;;;;;;;;;;
2023/02/07 02:46:17;;;;;;;10.9;7.1;;;;;;;;;;;;;
2023/02/07 02:48:45;;;;;;;10.2;7.3;;;;;;;;;;;;;
2023/02/07 02:51:10;;;;;;;11.6;9.7;;;;;;;;;;;;;
2023/02/07 02:53:35;;;;;;;10.7;7.9;;;;;;;;;;;;;
2023/02/07 02:56:00;;;;;;;9.3;7.1;;;;;;;;;;;;;
2023/02/07 02:58:25;;;;;;;9.1;7.1;;;;;;;;;;;;;
2023/02/07 03:00:50;;;;;;;9.7;7;;;;;;;;;;;;;
2023/02/07 03:03:16;;;;;;;10.2;7;;;;;;;;;;;;;
2023/02/07 03:05:41;;;;;;;9.4;6.5;;;;;;;;;;;;;
2023/02/07 03:08:06;;;;;;;7.8;6;;;;;;;;;;;;;
2023/02/07 03:10:31;;;;;;;9.5;6.2;;;;;;;;;;;;;
2023/02/07 03:12:56;;;;;;;7.5;5.9;;;;;;;;;;;;;
2023/02/07 03:15:22;;;;;;;7.9;5.6;;;;;;;;;;;;;
2023/02/07 03:17:47;;;;;;;7.5;5.8;;;;;;;;;;;;;
2023/02/07 03:20:12;;;;;;;6.9;5.6;;;;;;;;;;;;;
2023/02/07 03:22:42;;;;;;;9.4;6.7;;;;;;;;;;;;;
2023/02/07 03:25:07;;;;;;;8.1;6;;;;;;;;;;;;;
2023/02/07 03:27:36;;;;;;;9.2;6.8;;;;;;;;;;;;;
2023/02/07 03:30:04;;;;;;;10.3;7.1;;;;;;;;;;;;;
2023/02/07 03:32:30;;;;;;;9.6;7.5;;;;;;;;;;;;;
2023/02/07 03:35:00;;;;;;;9.4;7;;;;;;;;;;;;;
2023/02/07 03:37:34;;;;;;;11.6;7.6;;;;;;;;;;;;;
2023/02/07 03:40:02;;;;;;;11.4;8.1;;;;;;;;;;;;;
2023/02/07 03:42:27;;;;;;;13.1;7.7;;;;;;;;;;;;;
2023/02/07 03:44:52;;;;;;;10;7.6;;;;;;;;;;;;;
2023/02/07 03:47:19;;;;;;;11.8;7.8;;;;;;;;;;;;;
2023/02/07 03:49:44;;;;;;;10.4;7;;;;;;;;;;;;;
2023/02/07 03:52:10;;;;;;;11.6;7.6;;;;;;;;;;;;;
2023/02/07 03:54:35;;;;;;;10.3;7;;;;;;;;;;;;;
2023/02/07 03:57:00;;;;;;;10.2;7.8;;;;;;;;;;;;;
2023/02/07 03:59:25;;;;;;;10.3;7.8;;;;;;;;;;;;;
2023/02/07 04:02:38;;;;;;;11.6;7.6;;;;;;;-4.6;87.38379;953.1322;;;;
2023/02/07 04:05:21;;;;;;;9.7;7;;;;;;;-4.71;88.08789;953.0994;;;;
2023/02/07 04:07:53;;;;;;;12.1;7.5;;;;;;;-4.77;88.07617;953.1917;;;;
2023/02/07 04:10:20;;;;;;;13.4;11.3;;;;;;;-4.73;88.22754;953.2592;;;;
2023/02/07 04:12:50;;;;;;;11.9;9.4;;;;;;;-4.72;88.10645;953.2202;;;;
2023/02/07 04:15:23;;;;;;;10.9;8;;;;;;;-4.68;88.37988;953.1456;;;;
2023/02/07 04:17:54;;;;;;;11.8;8.1;;;;;;;-4.62;87.94141;953.2263;;;;
2023/02/07 04:20:23;;;;;;;11;7.9;;;;;;;-4.72;88.30469;953.3212;;;;
2023/02/07 04:22:55;;;;;;;11.7;7.6;;;;;;;-4.69;88.46582;953.3456;;;;
2023/02/07 04:25:27;;;;;;;12.8;8.5;;;;;;;-4.72;88.15039;953.3524;;;;
2023/02/07 04:27:58;;;;;;;9.9;7.8;;;;;;;-4.69;87.96875;953.2929;;;;
2023/02/07 04:30:30;;;;;;;10.9;8;;;;;;;-4.75;87.83789;953.2681;;;;
2023/02/07 04:32:55;;;;;;;9.7;7.5;;;;;;;-4.86;87.96973;953.3391;;;;
2023/02/07 04:35:28;;;;;;;10.8;7.2;;;;;;;-4.97;88.58301;953.33;;;;
2023/02/07 04:38:02;;;;;;;11;7.5;;;;;;;-4.91;88.89355;953.2936;;;;
2023/02/07 04:40:31;;;;;;;10.8;7.3;;;;;;;-4.93;88.62598;953.2539;;;;
2023/02/07 04:42:56;;;;;;;10.5;7.5;;;;;;;-5.04;88.96387;953.2305;;;;
2023/02/07 04:45:25;;;;;;;9.7;7.4;;;;;;;-5.04;89.44824;953.2144;;;;
2023/02/07 04:47:50;;;;;;;9.9;7.4;;;;;;;-5.04;89.49414;953.2511;;;;
2023/02/07 04:50:22;;;;;;;9.2;7.2;;;;;;;-5.13;89.74805;953.1099;;;;
2023/02/07 04:52:51;;;;;;;12.1;7.1;;;;;;;-5.19;90.06445;953.0628;;;;
2023/02/07 04:55:17;;;;;;;12.4;7.9;;;;;;;-5.07;90.33398;953.105;;;;
2023/02/07 04:57:44;;;;;;;8.7;6.3;;;;;;;-5.04;90.39648;953.0663;;;;
2023/02/07 05:00:10;;;;;;;8.3;6.2;;;;;;;-4.94;89.93359;952.9894;;;;
2023/02/07 05:02:36;;;;;;;9.7;6.2;;;;;;;-4.71;87.91016;953.0284;;;;
2023/02/07 05:05:01;;;;;;;8.5;6.1;;;;;;;-4.64;86.6709;952.87;;;;
2023/02/07 05:07:37;;;;;;;8.9;5.8;;;;;;;-4.71;86.67773;953.0211;;;;
2023/02/07 05:10:10;;;;;;;8.7;6.2;;;;;;;-4.73;87.00488;952.9266;;;;
2023/02/07 05:12:35;;;;;;;10.3;6.3;;;;;;;-4.65;86.625;952.9214;;;;
2023/02/07 05:15:00;;;;;;;10.1;6.9;;;;;;;-4.79;86.62598;952.9445;;;;
2023/02/07 05:17:29;;;;;;;10.3;6.9;;;;;;;-4.81;86.87793;953.0195;;;;
2023/02/07 05:19:53;;;;;;;10.3;6.7;;;;;;;-4.81;86.77637;953.0417;;;;
2023/02/07 05:22:18;;;;;;;9.4;6.2;;;;;;;-4.81;86.73242;953.1567;;;;
2023/02/07 05:24:43;;;;;;;9.9;6.1;;;;;;;-4.71;86.63184;953.2056;;;;
2023/02/07 05:27:08;;;;;;;7.9;5.5;;;;;;;-4.8;86.86816;953.2222;;;;
2023/02/07 05:29:39;;;;;;;138.5;67.9;;;;;;;-4.73;86.90332;953.2147;;;;
2023/02/07 05:34:31;;;;;;;8.2;5.4;;;;;;;-4.75;86.69043;953.2402;;;;
2023/02/07 05:36:59;;;;;;;9.6;6;;;;;;;-4.81;86.97852;953.2422;;;;
2023/02/07 05:39:24;;;;;;;8.8;5.5;;;;;;;-4.77;86.64258;953.2855;;;;
2023/02/07 05:41:49;;;;;;;9.1;5.8;;;;;;;-4.72;85.54199;953.3387;;;;
2023/02/07 05:44:18;;;;;;;18.4;9.7;;;;;;;-4.6;85.3457;953.3293;;;;
2023/02/07 05:46:49;;;;;;;7.8;6;;;;;;;-4.48;84.59961;953.1656;;;;
2023/02/07 05:49:19;;;;;;;10.1;7.1;;;;;;;-4.56;84.47266;953.2299;;;;
2023/02/07 05:51:44;;;;;;;13.9;8.6;;;;;;;-4.65;81.84375;953.3203;;;;
2023/02/07 05:54:12;;;;;;;23.8;13.1;;;;;;;-4.59;82.43848;953.3105;;;;
2023/02/07 05:56:38;;;;;;;10.5;6.6;;;;;;;-4.53;82.84766;953.2642;;;;
2023/02/07 05:59:07;;;;;;;404.5;178.1;;;;;;;-4.75;84.37793;953.1526;;;;
2023/02/07 06:01:36;;;;;;;310.7;141;;;;;;;-5.16;86.78223;953.1557;;;;
2023/02/07 06:04:01;;;;;;;449.6;204.4;;;;;;;-5.16;87.68457;953.1205;;;;
2023/02/07 06:06:30;;;;;;;71.6;39.3;;;;;;;-5.09;87.74512;953.1838;;;;
2023/02/07 06:08:55;;;;;;;16.6;11.1;;;;;;;-5.17;88.10059;953.1169;;;;
2023/02/07 06:11:20;;;;;;;12.5;7.4;;;;;;;-5.13;88.33984;953.3309;;;;
2023/02/07 06:14:01;;;;;;;15.6;13;;;;;;;-5.07;88.14355;953.4312;;;;
2023/02/07 06:16:29;;;;;;;10.9;7.5;;;;;;;-4.89;87.36719;953.3555;;;;
2023/02/07 06:18:58;;;;;;;9.8;6.7;;;;;;;-4.79;84.78906;953.3521;;;;
2023/02/07 06:21:23;;;;;;;11.2;7.5;;;;;;;-4.93;85.50977;953.404;;;;
2023/02/07 06:23:52;;;;;;;13.2;9.8;;;;;;;-4.87;85.33398;953.3729;;;;
2023/02/07 06:26:17;;;;;;;9.1;6.3;;;;;;;-4.8;85.69043;953.3382;;;;
2023/02/07 06:28:43;;;;;;;13.3;8;;;;;;;-4.62;85.54004;953.3278;;;;
2023/02/07 06:31:11;;;;;;;8.3;6.4;;;;;;;-4.72;85.33008;953.228;;;;
2023/02/07 06:34:01;;;;;;;12.9;7.9;;;;;;;-4.81;85.75391;953.3049;;;;
2023/02/07 06:36:28;;;;;;;10.9;6.6;;;;;;;-4.96;86.53906;953.3381;;;;
2023/02/07 06:38:54;;;;;;;9.9;7.5;;;;;;;-4.94;86.74121;953.2659;;;;
2023/02/07 06:41:21;;;;;;;10.8;7.8;;;;;;;-4.86;86.54883;953.1744;;;;
2023/02/07 06:43:46;;;;;;;14.3;7.8;;;;;;;-4.8;88.4873;953.2771;;;;
2023/02/07 06:46:14;;;;;;;10.6;6.5;;;;;;;-4.64;86.8125;953.3145;;;;
2023/02/07 06:48:40;;;;;;;9.8;6.8;;;;;;;-4.78;85.25488;953.2524;;;;
2023/02/07 06:51:08;;;;;;;9.8;7.6;;;;;;;-4.85;85.11719;953.2545;;;;
2023/02/07 06:53:39;;;;;;;12.4;7.9;;;;;;;-4.7;83.5625;953.2339;;;;
2023/02/07 06:56:04;;;;;;;11.1;7.2;;;;;;;-4.53;82.69141;953.3488;;;;
2023/02/07 06:58:33;;;;;;;13.3;7.8;;;;;;;-4.37;81.0498;953.209;;;;
2023/02/07 07:01:04;;;;;;;99.4;40.3;;;;;;;-4.42;81.31445;953.2463;;;;
2023/02/07 07:03:29;;;;;;;172.2;67.9;;;;;;;-4.51;81.98047;953.1552;;;;
2023/02/07 07:05:56;;;;;;;53;25.3;;;;;;;-4.3;80.63184;953.3217;;;;
2023/02/07 07:08:21;;;;;;;35.1;17.6;;;;;;;-4.24;81.74707;953.3473;;;;
2023/02/07 07:10:48;;;;;;;15.1;9.7;;;;;;;-4.21;80.87012;953.3981;;;;
2023/02/07 07:13:14;;;;;;;21.7;11.9;;;;;;;-4.27;83.69336;953.3063;;;;
2023/02/07 07:15:46;;;;;;;23.9;13;;;;;;;-4.05;83.12793;953.318;;;;
2023/02/07 07:18:16;;;;;;;16.4;10.9;;;;;;;-3.68;83.06055;953.3664;;;;
2023/02/07 07:20:44;;;;;;;36.5;19.1;;;;;;;-3.31;81.45215;953.3044;;;;
2023/02/07 07:23:09;;;;;;;14.8;9.2;;;;;;;-3.11;79.57031;953.2585;;;;
2023/02/07 07:25:38;;;;;;;11.7;7.9;;;;;;;-2.85;78.93262;953.2785;;;;
2023/02/07 07:28:03;;;;;;;11.9;7.3;;;;;;;-2.74;78.46582;953.2871;;;;
2023/02/07 07:30:34;;;;;;;15;9.3;;;;;;;-2.46;77.07813;953.3201;;;;
2023/02/07 07:33:04;;;;;;;12.4;8;;;;;;;-2.04;76.42285;953.3068;;;;
2023/02/07 07:35:29;;;;;;;11.5;7.9;;;;;;;-2.23;75.4043;953.3318;;;;
2023/02/07 07:37:54;;;;;;;12.4;8.2;;;;;;;-2.3;75.21387;953.2486;;;;
2023/02/07 07:40:26;;;;;;;13.6;8.1;;;;;;;-2.29;75.84668;953.3186;;;;
2023/02/07 07:42:55;;;;;;;21.1;12;;;;;;;-1.96;74.83203;953.2625;;;;
2023/02/07 07:45:20;;;;;;;10.7;6.7;;;;;;;-1.42;72.19727;953.2458;;;;
2023/02/07 07:47:49;;;;;;;10.4;6.5;;;;;;;-1.54;71.95313;953.1515;;;;
2023/02/07 07:50:21;;;;;;;7.1;4.6;;;;;;;-1.02;68.30957;953.1356;;;;
2023/02/07 07:52:50;;;;;;;7.9;5.2;;;;;;;-1.15;69.11035;953.1328;;;;
2023/02/07 07:55:16;;;;;;;19.5;10.2;;;;;;;-1.22;68.69922;953.092;;;;
2023/02/07 07:57:40;;;;;;;8.1;5.2;;;;;;;-0.62;67.51563;952.9948;;;;
2023/02/07 08:00:08;;;;;;;5.6;4.5;;;;;;;-0.3;64.8418;952.9365;;;;
2023/02/07 08:02:33;;;;;;;7.2;5.4;;;;;;;-0.03;63.17773;952.9398;;;;
2023/02/07 08:05:02;;;;;;;8.4;6;;;;;;;-0.81;65.14063;952.9584;;;;
2023/02/07 08:07:32;;;;;;;6.7;5.1;;;;;;;-0.2;64.07813;952.9651;;;;
2023/02/07 08:09:57;;;;;;;5;4.1;;;;;;;0.19;61.58496;952.9208;;;;
2023/02/07 08:12:24;;;;;;;5.7;3.9;;;;;;;-0.21;61.90527;952.8884;;;;
2023/02/07 08:14:49;;;;;;;5.4;3.8;;;;;;;0.96;59.88672;952.877;;;;
2023/02/07 08:17:19;;;;;;;11.1;4.5;;;;;;;1.32;57.33594;952.8467;;;;
2023/02/07 08:19:44;;;;;;;7.1;4.2;;;;;;;1.52;55.32813;952.9114;;;;
2023/02/07 08:22:13;;;;;;;5.4;4.2;;;;;;;0.71;58.60156;952.8649;;;;
2023/02/07 08:24:36;;;;;;;4.7;3.8;;;;;;;0.58;58.20605;952.8122;;;;
2023/02/07 08:27:04;;;;;;;4.8;3.5;;;;;;;0.89;58.45996;952.7628;;;;
2023/02/07 08:29:29;;;;;;;6.5;3.7;;;;;;;1.95;55.74219;952.8102;;;;
2023/02/07 08:31:56;;;;;;;4.5;3.7;;;;;;;1.61;55.27246;952.7787;;;;
2023/02/07 08:34:24;;;;;;;6.5;3.8;;;;;;;1.14;56.43945;952.7487;;;;
2023/02/07 08:36:46;;;;;;;10.5;4.5;;;;;;;1.52;55.36035;952.652;;;;
2023/02/07 08:39:16;;;;;;;8.3;4.1;;;;;;;2.06;53.84277;952.6806;;;;
2023/02/07 08:41:46;;;;;;;7.2;4;;;;;;;1.86;53.89453;952.6976;;;;
2023/02/07 08:44:16;;;;;;;4.9;3.4;;;;;;;1.57;54.38379;952.7186;;;;
2023/02/07 08:46:41;;;;;;;8.7;4.5;;;;;;;2.18;54.76465;952.7531;;;;
2023/02/07 08:49:07;;;;;;;5;3.2;;;;;;;2.15;53.21582;952.7148;;;;
2023/02/07 08:51:32;;;;;;;9.2;3.8;;;;;;;2.11;53.25488;952.665;;;;
2023/02/07 08:53:59;;;;;;;7.7;3.3;;;;;;;1.65;55.30078;952.5012;;;;
2023/02/07 08:56:24;;;;;;;5.7;3.5;;;;;;;1.32;55.83691;952.5341;;;;
2023/02/07 08:58:51;;;;;;;36.9;7.7;;;;;;;0.95;57.7207;952.5175;;;;
2023/02/07 09:01:17;;;;;;;18.3;5.8;;;;;;;0.61;58.41016;952.5148;;;;
2023/02/07 09:03:45;;;;;;;17.4;7.5;;;;;;;0.33;60.83496;952.5583;;;;
2023/02/07 09:06:10;;;;;;;14.5;6.7;;;;;;;0.4;59.77539;952.4906;;;;
2023/02/07 09:08:38;;;;;;;41.9;13.4;;;;;;;0.17;61.83691;952.5246;;;;
2023/02/07 09:11:03;;;;;;;29.3;7;;;;;;;0.09;63.04004;952.4506;;;;
2023/02/07 09:13:29;;;;;;;6.6;3.3;;;;;;;0.01;62.21582;952.5334;;;;
2023/02/07 09:15:53;;;;;;;11.1;5.4;;;;;;;-0.08;63.24805;952.5781;;;;
2023/02/07 09:18:21;;;;;;;32.6;24.9;;;;;;;-0.16;64.1709;952.6171;;;;
2023/02/07 09:20:46;;;;;;;11.3;6.2;;;;;;;-0.26;64.58984;952.5416;;;;
2023/02/07 09:23:21;;;;;;;4.8;3.4;;;;;;;-0.05;63.27734;952.519;;;;
2023/02/07 09:25:40;;;;;;;8.3;3.6;;;;;;;-0.09;63.73828;952.4989;;;;
2023/02/07 09:28:08;;;;;;;7.3;3.8;;;;;;;0.1;63.08594;952.4559;;;;
2023/02/07 09:30:35;;;;;;;10.5;4.4;;;;;;;0.25;62.98438;952.4551;;;;
2023/02/07 09:33:01;;;;;;;11.2;4.4;;;;;;;0.3;63.32715;952.4095;;;;
2023/02/07 09:35:29;;;;;;;5.6;4.1;;;;;;;0.28;61.30859;952.3103;;;;
2023/02/07 09:37:54;;;;;;;11.4;4.3;;;;;;;0.32;58.87207;952.2364;;;;
2023/02/07 09:40:19;;;;;;;6.7;3.9;;;;;;;0.29;58.8125;952.2339;;;;
2023/02/07 09:42:49;;;;;;;10.8;5.1;;;;;;;0.45;59.90527;952.2209;;;;
2023/02/07 09:45:14;;;;;;;8.6;5.2;;;;;;;0.6;60.99707;952.2062;;;;
2023/02/07 09:47:39;;;;;;;4.4;3.1;;;;;;;0.95;60.75781;952.1882;;;;
2023/02/07 09:50:04;;;;;;;11.5;4.3;;;;;;;1.24;59.51465;952.2537;;;;
2023/02/07 09:52:29;;;;;;;9.3;5;;;;;;;1.27;59.07129;952.2711;;;;
2023/02/07 09:54:59;;;;;;;4.1;3;;;;;;;1.61;56.91602;952.2314;;;;
2023/02/07 09:57:25;;;;;;;3.2;2.4;;;;;;;1.98;53.67578;952.2472;;;;
2023/02/07 09:59:50;;;;;;;4.2;2.6;;;;;;;2.37;52.33594;952.2642;;;;
2023/02/07 10:04:41;;;;;;;14.5;3.9;;;;;;;2.9;50.89746;952.2206;;;;
2023/02/07 10:07:06;;;;;;;9.6;4;;;;;;;3.33;49.61426;952.2205;;;;
2023/02/07 10:09:33;;;;;;;7;3.2;;;;;;;4.34;47.61523;952.2271;;;;
2023/02/07 10:11:59;;;;;;;5.4;3.3;;;;;;;5.13;46.89258;952.1849;;;;
2023/02/07 10:14:24;;;;;;;11;3.4;;;;;;;6.63;44.11523;952.2262;;;;
2023/02/07 10:16:49;;;;;;;7.5;3.8;;;;;;;6.54;43.55078;952.2302;;;;
2023/02/07 10:19:14;;;;;;;5;3.4;;;;;;;6.39;43.59277;952.1906;;;;
2023/02/07 10:21:40;;;;;;;3.6;2.8;;;;;;;5.99;44.01563;952.2051;;;;
2023/02/07 10:24:05;;;;;;;2.9;2.5;;;;;;;6.09;42.91797;952.2367;;;;
2023/02/07 10:26:31;;;;;;;4.3;2.8;;;;;;;5.71;43.02637;952.2214;;;;
2023/02/07 10:29:02;;;;;;;5.8;3.1;;;;;;;5.07;43.50391;952.1691;;;;
2023/02/07 10:31:26;;;;;;;3.6;3.1;;;;;;;4.77;44.22754;952.11;;;;
2023/02/07 10:33:51;;;;;;;3.6;2.8;;;;;;;5.8;43.66797;952.1172;;;;
2023/02/07 10:36:20;;;;;;;3.1;2.7;;;;;;;5.57;44.17578;952.1719;;;;
2023/02/07 10:38:46;;;;;;;3.2;2.5;;;;;;;6.58;42.31055;952.1321;;;;
2023/02/07 10:41:14;;;;;;;6.1;3.2;;;;;;;6.57;44.32324;952.2173;;;;
2023/02/07 10:43:39;;;;;;;5.3;3.9;;;;;;;5.62;49.21484;952.1353;;;;
2023/02/07 10:48:30;;;;;;;5.4;4.2;;;;;;;4.7;51.00098;952.1873;;;;
2023/02/07 10:50:59;;;;;;;7;4.7;;;;;;;4.05;54.29688;952.2684;;;;
2023/02/07 10:53:29;;;;;;;8.4;5.2;;;;;;;3.99;54.08691;952.2646;;;;
2023/02/07 10:55:54;;;;;;;6.2;4.7;;;;;;;3.83;54.35938;952.2346;;;;
2023/02/07 10:58:19;;;;;;;6;4.7;;;;;;;3.92;53.31348;952.2227;;;;
2023/02/07 11:00:45;;;;;;;7.2;5.7;;;;;;;4.12;54.23828;952.4095;;;;
2023/02/07 11:03:10;;;;;;;7.4;5.9;;;;;;;3.61;57.01563;952.3752;;;;
2023/02/07 11:05:37;;;;;;;7;5.7;;;;;;;3.67;56.0127;952.4933;;;;
2023/02/07 11:08:02;;;;;;;7.4;6.1;;;;;;;3.29;58.47656;952.4988;;;;
2023/02/07 11:10:27;;;;;;;9.2;6.7;;;;;;;3.57;59.02148;952.4207;;;;
2023/02/07 11:12:52;;;;;;;8.8;6.9;;;;;;;3.23;61.00586;952.4592;;;;
2023/02/07 11:15:21;;;;;;;9.3;7.3;;;;;;;3.03;61.78516;952.56;;;;
2023/02/07 11:17:45;;;;;;;8.7;6.8;;;;;;;3.06;60.0625;952.4772;;;;
2023/02/07 11:20:14;;;;;;;8.9;7.3;;;;;;;3.07;60.12988;952.5592;;;;
2023/02/07 11:22:39;;;;;;;10.6;7.4;;;;;;;2.85;64.94531;952.5822;;;;
2023/02/07 11:25:13;;;;;;;9.9;7.7;;;;;;;3.04;63.68457;952.491;;;;
2023/02/07 11:27:38;;;;;;;10.3;7.5;;;;;;;3.24;60.82813;952.6099;;;;
2023/02/07 11:30:08;;;;;;;8.3;7;;;;;;;2.97;61.54102;952.6334;;;;
2023/02/07 11:32:35;;;;;;;10.7;8;;;;;;;3.14;61.36426;952.5142;;;;
2023/02/07 11:35:00;;;;;;;8.7;6.8;;;;;;;3.53;59.38672;952.4462;;;;
2023/02/07 11:37:27;;;;;;;9.1;6.6;;;;;;;3.63;58.49023;952.4503;;;;
2023/02/07 11:39:53;;;;;;;8.9;6.8;;;;;;;3.52;59.64453;952.383;;;;
2023/02/07 11:42:20;;;;;;;9;7.1;;;;;;;3.84;59.00195;952.3915;;;;
2023/02/07 11:44:45;;;;;;;8.2;6.8;;;;;;;4.02;57.17188;952.3928;;;;
2023/02/07 11:47:11;;;;;;;8.2;6.5;;;;;;;4.2;57.0957;952.3431;;;;
2023/02/07 11:49:37;;;;;;;9.5;6.7;;;;;;;4.5;55.18848;952.3754;;;;
2023/02/07 11:52:06;;;;;;;8.9;6.4;;;;;;;4.5;55.35547;952.4168;;;;
2023/02/07 11:54:31;;;;;;;8.7;6.2;;;;;;;4.79;54.82031;952.4511;;;;
2023/02/07 11:56:59;;;;;;;8.9;6.8;;;;;;;5;54.3623;952.3403;;;;
2023/02/07 11:59:27;;;;;;;7.5;6;;;;;;;5.65;51.82715;952.3691;;;;
2023/02/07 12:01:52;;;;;;;7.2;6;;;;;;;6.22;50.75293;952.489;;;;
2023/02/07 12:04:20;;;;;;;7.5;5.9;;;;;;;7.78;47.3418;952.37;;;;
2023/02/07 12:06:46;;;;;;;6.9;5.5;;;;;;;8.9;44.51953;952.2526;;;;
2023/02/07 12:09:15;;;;;;;5.8;5.2;;;;;;;10.49;40.41406;952.2581;;;;
2023/02/07 12:11:42;;;;;;;5.4;4.9;;;;;;;11.27;38.18848;952.2209;;;;
2023/02/07 12:14:07;;;;;;;7.3;5;;;;;;;12.57;35.7334;952.1337;;;;
2023/02/07 12:16:36;;;;;;;6.4;5;;;;;;;13.09;35.14453;952.0186;;;;
2023/02/07 12:19:09;;;;;;;5.5;4.8;;;;;;;11.73;37.18652;951.9774;;;;
2023/02/07 12:21:33;;;;;;;6.4;5.2;;;;;;;12.17;37.91211;951.9075;;;;
2023/02/07 12:23:59;;;;;;;6.6;4.9;;;;;;;14.1;33.51074;951.9235;;;;
2023/02/07 12:26:24;;;;;;;6.6;5.3;;;;;;;12.99;35.84766;951.9153;;;;
2023/02/07 12:28:49;;;;;;;6.2;5.3;;;;;;;14.7;32.71582;951.8978;;;;
2023/02/07 12:31:14;;;;;;;6.7;5.2;;;;;;;15.71;30.11035;951.812;;;;
2023/02/07 12:33:43;;;;;;;5.2;4.7;;;;;;;16.55;29.32227;951.7482;;;;
2023/02/07 12:36:10;;;;;;;5.8;5.1;;;;;;;15.85;30.50098;951.8812;;;;
2023/02/07 12:38:37;;;;;;;6.2;4.9;;;;;;;13.84;32.40918;951.8439;;;;
2023/02/07 12:41:02;;;;;;;7.9;5.5;;;;;;;15.13;31.66309;951.7811;;;;
2023/02/07 12:43:27;;;;;;;6.7;5.4;;;;;;;13.75;32.98828;951.7603;;;;
2023/02/07 12:45:53;;;;;;;7.4;5;;;;;;;14.67;32.4248;951.7473;;;;
2023/02/07 12:48:20;;;;;;;6;4.8;;;;;;;15.84;29.39063;951.6844;;;;
2023/02/07 12:50:47;;;;;;;6.4;5.2;;;;;;;15.52;30.97559;951.5812;;;;
2023/02/07 12:53:16;;;;;;;7.9;5.5;;;;;;;14.1;32.15234;951.6976;;;;
2023/02/07 12:55:41;;;;;;;9.5;5.2;;;;;;;15.03;30.97461;951.7162;;;;
2023/02/07 12:58:08;;;;;;;6;4.9;;;;;;;15.87;29.75098;951.6358;;;;
2023/02/07 13:00:33;;;;;;;6.3;5;;;;;;;15.72;30.49219;951.6291;;;;
2023/02/07 13:02:58;;;;;;;6.1;5.1;;;;;;;14.26;31.99121;951.7519;;;;
2023/02/07 13:05:23;;;;;;;7.8;5.6;;;;;;;15.09;30.74805;951.6795;;;;
2023/02/07 13:07:52;;;;;;;8.1;6.5;;;;;;;15.3;29.5625;951.6994;;;;
2023/02/07 13:10:20;;;;;;;6.3;4.4;;;;;;;14.98;30.29004;951.7722;;;;
2023/02/07 13:12:45;;;;;;;6;4.7;;;;;;;16.24;28.7002;951.6464;;;;
2023/02/07 13:15:12;;;;;;;5.1;4.6;;;;;;;15.52;29.28809;951.6887;;;;
2023/02/07 13:17:44;;;;;;;6.4;5.4;;;;;;;14.72;31.79492;951.66;;;;
2023/02/07 13:20:16;;;;;;;5.5;4.8;;;;;;;15.51;30.53516;951.5922;;;;
2023/02/07 13:22:47;;;;;;;6.9;5.1;;;;;;;16.68;29.01855;951.5342;;;;
2023/02/07 13:25:20;;;;;;;5.6;4.7;;;;;;;16.09;29.16504;951.5048;;;;
2023/02/07 13:27:45;;;;;;;6.2;5.1;;;;;;;14.45;31.48633;951.5673;;;;
2023/02/07 13:30:10;;;;;;;6.3;5.3;;;;;;;14.23;32.42578;951.563;;;;
2023/02/07 13:32:38;;;;;;;8.1;4.9;;;;;;;12.53;34.24902;951.5349;;;;
2023/02/07 13:35:05;;;;;;;6.4;5.5;;;;;;;12.56;34.97559;951.4861;;;;
2023/02/07 13:37:29;;;;;;;9.1;5.3;;;;;;;14.24;32.66895;951.5569;;;;
2023/02/07 13:40:01;;;;;;;7.1;5.2;;;;;;;15.04;31.20605;951.471;;;;
2023/02/07 13:42:26;;;;;;;6.1;5.4;;;;;;;14.31;31.99414;951.5436;;;;
2023/02/07 13:44:54;;;;;;;7.1;5.2;;;;;;;14.32;32.93945;951.5173;;;;
2023/02/07 13:47:19;;;;;;;6.7;5.2;;;;;;;13.71;33.8252;951.5466;;;;
2023/02/07 13:49:45;;;;;;;6.8;5.2;;;;;;;14.32;32.36328;951.5461;;;;
2023/02/07 13:52:09;;;;;;;7.3;5.4;;;;;;;14.51;32.19336;951.5826;;;;
2023/02/07 13:54:35;;;;;;;7.5;5.8;;;;;;;13.02;34.00195;951.5517;;;;
2023/02/07 13:59:41;;;;;;;6.4;5.5;;;;;;;14.52;31.05371;951.6822;;;;
2023/02/07 14:01:52;;;;;;;7;5.3;;;;;;;15.63;30.47363;951.6433;;;;
2023/02/07 14:04:18;;;;;;;7.7;5.9;;;;;;;15.84;29.76074;951.6331;;;;
2023/02/07 14:06:44;;;;;;;8.8;6.3;;;;;;;14.67;31.53711;951.6584;;;;
2023/02/07 14:09:10;;;;;;;7.6;5.9;;;;;;;14.74;31.8877;951.6906;;;;
2023/02/07 14:11:38;;;;;;;8.1;6.1;;;;;;;15.42;30.29785;951.6093;;;;
2023/02/07 14:14:03;;;;;;;7.5;5.9;;;;;;;16.61;29.1875;951.5677;;;;
2023/02/07 14:16:30;;;;;;;9;6.3;;;;;;;15.56;30.81641;951.5815;;;;
2023/02/07 14:18:56;;;;;;;7.4;5.8;;;;;;;15.46;31.13184;951.5435;;;;
2023/02/07 14:21:20;;;;;;;8.2;6;;;;;;;14.92;31.52051;951.5765;;;;
2023/02/07 14:23:48;;;;;;;7.1;5.7;;;;;;;15.87;30.0166;951.565;;;;
2023/02/07 14:26:18;;;;;;;7.7;6;;;;;;;15.36;30.84766;951.5813;;;;
2023/02/07 14:28:45;;;;;;;7.6;6.2;;;;;;;15.31;30.54395;951.6393;;;;
2023/02/07 14:31:11;;;;;;;9.2;6.4;;;;;;;13.94;32.50879;951.7289;;;;
2023/02/07 14:33:39;;;;;;;8.9;6.4;;;;;;;13.82;32.85645;951.6506;;;;
2023/02/07 14:36:05;;;;;;;7.8;6;;;;;;;13.19;33.76074;951.6226;;;;
2023/02/07 14:38:36;;;;;;;8.1;6.3;;;;;;;13.25;33.49121;951.6761;;;;
2023/02/07 14:41:01;;;;;;;8.1;5.8;;;;;;;11.82;36.08301;951.6994;;;;
2023/02/07 14:43:27;;;;;;;7.2;6;;;;;;;11.99;35.46777;951.6833;;;;
2023/02/07 14:45:55;;;;;;;7.8;5.9;;;;;;;11.63;36.14746;951.7297;;;;
2023/02/07 14:48:22;;;;;;;8.8;6.2;;;;;;;12.38;35.48828;951.6974;;;;
2023/02/07 14:50:47;;;;;;;7.6;5.9;;;;;;;10.09;38.97363;951.7911;;;;
2023/02/07 14:53:12;;;;;;;7.8;5.9;;;;;;;10.29;38.42188;951.846;;;;
2023/02/07 14:55:41;;;;;;;8.5;6.4;;;;;;;10.1;38.65527;951.7436;;;;
2023/02/07 14:58:06;;;;;;;8.6;6.1;;;;;;;10;39.47852;951.8755;;;;
2023/02/07 15:00:35;;;;;;;8.1;6.2;;;;;;;10.22;39.08887;951.9384;;;;
2023/02/07 15:03:03;;;;;;;8.3;6.6;;;;;;;9.87;39.60352;951.9849;;;;
2023/02/07 15:05:25;;;;;;;8.9;6.5;;;;;;;9.09;41.12402;952.032;;;;
2023/02/07 15:07:52;;;;;;;9.1;6.5;;;;;;;8.56;41.85938;952.1103;;;;
2023/02/07 15:10:18;;;;;;;9.7;6.8;;;;;;;7.78;43.20117;952.196;;;;
2023/02/07 15:12:44;;;;;;;9.6;7.1;;;;;;;7.14;44.55371;952.2056;;;;
2023/02/07 15:15:09;;;;;;;9.9;7;;;;;;;6.52;46.11621;952.3273;;;;
2023/02/07 15:17:38;;;;;;;9.3;7.4;;;;;;;6.18;47.36914;952.3661;;;;
2023/02/07 15:20:12;;;;;;;9.5;7.6;;;;;;;5.96;48.21387;952.3391;;;;
2023/02/07 15:22:37;;;;;;;9.3;7.4;;;;;;;5.36;49.91797;952.3439;;;;
2023/02/07 15:25:02;;;;;;;9.9;8;;;;;;;5.01;51.28613;952.3649;;;;
2023/02/07 15:27:28;;;;;;;10;8.1;;;;;;;4.48;52.74316;952.4302;;;;
2023/02/07 15:29:58;;;;;;;10.9;8.1;;;;;;;4.24;54.23145;952.4009;;;;
2023/02/07 15:32:26;;;;;;;11.3;7.9;;;;;;;4.14;54.47754;952.3892;;;;
2023/02/07 15:34:49;;;;;;;10.7;8.6;;;;;;;3.68;57.04785;952.4706;;;;
2023/02/07 15:37:14;;;;;;;10.4;8.4;;;;;;;3.48;57.40332;952.5041;;;;
2023/02/07 15:39:43;;;;;;;10.7;8;;;;;;;3.24;57.96582;952.5634;;;;
2023/02/07 15:42:08;;;;;;;11.2;8.1;;;;;;;3.09;58.46094;952.5675;;;;
2023/02/07 15:44:41;;;;;;;10.4;8.3;;;;;;;3.15;58.44727;952.6029;;;;